Usti nad Labem, Czech Republic
Current Conditions -  °F | °C
As of 1:50 PM on Friday 24 Oct 2014 (Local Time) from EDDC Reporting Station
Broken Clouds Broken Clouds  
Wind Chill: 44°   Ceiling: 1000
Heat Index: 46°   Visibility: 6mi
Dew Point: 43°   Wind: 5mph
Humidity: 87%   Direction: 110°ESE
Pressure: 30.21"   Gusts: NA
Location:  50.7°N, 14.06°E
Report Text: EDDC 241150Z 11004KT 9999 BKN010 08/06 Q1023 BECMG SCT012
Loading
Personal Weather Stations






























Interactive Weather Map
Tropical Storm Tracking
New forecast layout! Learn more

10-Day Weather Forecast

Advertisements
Track Severe Weather on mobile